Time;durP1;ratioP1;P1;durP2;ratioP2;P2;SDS_P1;SDS_P2;PMS_P1;PMS_P2;Temp;Humidity;BMP_temperature;BMP_pressure;BME280_temperature;BME280_humidity;BME280_pressure;Samples;Min_cycle;Max_cycle;Signal;HPM_P1;HPM_P2
2021/03/06 00:00:18;;;;;;;28.83;21.30;;;-1.80;31.30;;;;;;5065276;28;20198;-64
2021/03/06 00:02:44;;;;;;;30.42;21.88;;;-1.80;33.20;;;;;;5091983;28;20426;-65
2021/03/06 00:05:10;;;;;;;26.67;20.70;;;-1.80;32.20;;;;;;5090138;28;20286;-65
2021/03/06 00:07:36;;;;;;;25.88;20.60;;;-1.80;33.10;;;;;;5090645;28;20200;-65
2021/03/06 00:10:08;;;;;;;27.10;20.65;;;-1.80;31.90;;;;;;5071796;28;20576;-65
2021/03/06 00:12:33;;;;;;;25.92;18.48;;;-1.80;32.90;;;;;;5091438;28;20194;-65
2021/03/06 00:14:59;;;;;;;24.80;18.57;;;-1.80;36.00;;;;;;5090440;28;20271;-65
2021/03/06 00:17:25;;;;;;;25.47;18.43;;;-1.90;40.90;;;;;;5081579;28;20184;-65
2021/03/06 00:19:50;;;;;;;28.20;19.10;;;-1.90;48.80;;;;;;5088319;28;20221;-65
2021/03/06 00:22:16;;;;;;;26.77;18.67;;;-2.00;52.00;;;;;;5091655;28;20200;-65
2021/03/06 00:24:41;;;;;;;26.10;18.17;;;-2.00;57.40;;;;;;5092790;28;20195;-65
2021/03/06 00:27:07;;;;;;;24.70;18.80;;;-2.00;59.40;;;;;;5072786;28;20197;-65
2021/03/06 00:29:33;;;;;;;25.93;18.57;;;-2.00;61.40;;;;;;5090501;28;20219;-65
2021/03/06 00:31:58;;;;;;;23.13;18.67;;;-2.10;64.10;;;;;;5091481;28;20273;-65
2021/03/06 00:34:24;;;;;;;27.37;17.90;;;-2.10;69.20;;;;;;5090108;28;20446;-65
2021/03/06 00:36:49;;;;;;;23.53;16.27;;;-2.10;72.60;;;;;;5071839;28;20181;-65
2021/03/06 00:39:15;;;;;;;23.63;16.73;;;-2.20;76.00;;;;;;5090214;28;20285;-65
2021/03/06 00:41:41;;;;;;;25.73;16.97;;;-2.20;76.10;;;;;;5086153;28;20192;-65
2021/03/06 00:44:06;;;;;;;23.40;16.17;;;-2.20;74.80;;;;;;5086533;28;20254;-66
2021/03/06 00:46:32;;;;;;;19.60;15.17;;;-2.20;72.00;;;;;;5090885;28;20200;-65
2021/03/06 00:48:57;;;;;;;22.40;16.43;;;-2.20;70.20;;;;;;5089591;28;20214;-66
2021/03/06 00:51:23;;;;;;;25.37;16.70;;;-2.20;70.40;;;;;;5089944;28;20431;-65
2021/03/06 00:53:49;;;;;;;22.57;16.90;;;-2.30;71.60;;;;;;5068380;28;20185;-66
2021/03/06 00:56:15;;;;;;;22.80;16.43;;;-2.30;75.00;;;;;;5090541;28;20426;-66
2021/03/06 00:58:40;;;;;;;21.77;15.47;;;-2.30;77.10;;;;;;5090119;28;20430;-65
2021/03/06 01:01:07;;;;;;;22.40;16.30;;;-2.30;71.90;;;;;;5066601;28;20197;-65
2021/03/06 01:03:33;;;;;;;21.60;15.77;;;-2.30;71.60;;;;;;5085220;28;20258;-65
2021/03/06 01:05:59;;;;;;;18.03;14.13;;;-2.30;77.00;;;;;;5088364;28;20192;-65
2021/03/06 01:08:25;;;;;;;20.48;14.60;;;-2.30;83.80;;;;;;5089851;28;20201;-65
2021/03/06 01:10:51;;;;;;;19.40;14.77;;;-2.30;87.70;;;;;;5090179;28;20590;-65
2021/03/06 01:13:17;;;;;;;24.00;15.80;;;-2.30;90.80;;;;;;5089909;28;20218;-65
2021/03/06 01:15:42;;;;;;;19.17;15.30;;;-2.40;93.10;;;;;;5089957;28;20188;-65
2021/03/06 01:18:08;;;;;;;20.73;14.30;;;-2.40;94.70;;;;;;5080179;28;20495;-65
2021/03/06 01:20:35;;;;;;;21.67;14.70;;;-2.40;97.50;;;;;;5089403;28;20188;-65
2021/03/06 01:23:02;;;;;;;19.10;14.65;;;-2.50;99.10;;;;;;5090274;28;20184;-66
2021/03/06 01:25:27;;;;;;;19.27;14.75;;;-2.50;99.90;;;;;;5088557;28;20706;-65
2021/03/06 01:27:53;;;;;;;18.63;13.67;;;-2.50;99.90;;;;;;5086640;28;20189;-66
2021/03/06 01:30:19;;;;;;;16.77;14.27;;;-2.50;99.90;;;;;;5089360;28;20291;-65
2021/03/06 01:32:45;;;;;;;19.17;14.43;;;-2.50;99.90;;;;;;5090215;28;20179;-65
2021/03/06 01:35:12;;;;;;;21.00;14.40;;;-2.50;99.90;;;;;;5092425;28;20187;-65
2021/03/06 01:37:38;;;;;;;23.52;14.20;;;-2.50;99.90;;;;;;5088729;28;20479;-65
2021/03/06 01:40:16;;;;;;;17.52;13.95;;;-2.60;99.90;;;;;;5087506;28;20188;-65
2021/03/06 01:42:42;;;;;;;18.05;13.18;;;-2.60;99.90;;;;;;5089672;28;20315;-65
2021/03/06 01:45:09;;;;;;;18.52;13.68;;;-2.60;99.90;;;;;;5089075;28;20201;-65
2021/03/06 01:47:34;;;;;;;20.48;14.38;;;-2.60;99.90;;;;;;5087127;28;20280;-66
2021/03/06 01:50:01;;;;;;;18.73;13.53;;;-2.60;99.90;;;;;;5088701;28;20745;-65
2021/03/06 01:52:26;;;;;;;19.40;13.63;;;-2.70;99.90;;;;;;5084584;28;20279;-65
2021/03/06 01:54:55;;;;;;;18.07;13.30;;;-2.60;99.90;;;;;;5083506;28;20607;-65
2021/03/06 01:57:20;;;;;;;17.80;12.20;;;-2.60;99.90;;;;;;5089965;28;20220;-66
2021/03/06 01:59:46;;;;;;;18.53;12.93;;;-2.60;99.90;;;;;;5088388;28;20719;-66
2021/03/06 02:02:12;;;;;;;21.00;13.27;;;-2.60;99.90;;;;;;5085760;28;20216;-66
2021/03/06 02:04:38;;;;;;;16.07;12.93;;;-2.60;99.90;;;;;;5082076;28;20579;-65
2021/03/06 02:07:04;;;;;;;17.83;13.50;;;-2.60;99.90;;;;;;5089678;28;20432;-65
2021/03/06 02:09:30;;;;;;;16.00;12.00;;;-2.60;99.90;;;;;;5087204;28;20209;-66
2021/03/06 02:12:05;;;;;;;16.00;13.02;;;-2.60;99.90;;;;;;5089816;28;20543;-65
2021/03/06 02:14:57;;;;;;;23.17;14.02;;;-2.60;99.90;;;;;;5088705;28;20168;-65
2021/03/06 02:17:34;;;;;;;18.02;13.40;;;-2.60;99.90;;;;;;5082335;28;20603;-65
2021/03/06 02:20:39;;;;;;;16.20;12.65;;;-2.70;99.90;;;;;;5069812;28;20223;-65
2021/03/06 02:23:22;;;;;;;19.63;13.48;;;-2.70;99.90;;;;;;5089525;28;20164;-66
2021/03/06 02:26:06;;;;;;;16.15;11.95;;;-2.70;99.90;;;;;;5076063;28;20558;-66
2021/03/06 02:28:53;;;;;;;20.42;13.38;;;-2.80;99.90;;;;;;5086561;28;20211;-66
2021/03/06 02:31:20;;;;;;;15.90;11.50;;;-2.80;99.90;;;;;;5086171;28;20180;-65
2021/03/06 02:33:53;;;;;;;17.58;12.35;;;-2.80;99.90;;;;;;5080310;28;20180;-65
2021/03/06 02:36:23;;;;;;;15.10;11.15;;;-2.80;99.90;;;;;;5087945;28;20176;-65
2021/03/06 02:38:52;;;;;;;19.85;12.43;;;-2.80;99.90;;;;;;5088827;28;20634;-66
2021/03/06 02:41:18;;;;;;;16.40;11.80;;;-2.80;99.90;;;;;;5088293;28;20188;-65
2021/03/06 02:43:44;;;;;;;17.35;11.25;;;-2.90;99.90;;;;;;5088270;28;20228;-66
2021/03/06 02:46:11;;;;;;;19.87;13.97;;;-2.90;99.90;;;;;;5070259;28;20208;-65
2021/03/06 02:48:37;;;;;;;15.60;12.07;;;-2.90;99.90;;;;;;5088275;28;20211;-66
2021/03/06 02:51:03;;;;;;;18.60;12.50;;;-2.90;99.90;;;;;;5086996;28;21045;-65
2021/03/06 02:53:29;;;;;;;15.48;12.18;;;-2.90;99.90;;;;;;5078658;28;20208;-65
2021/03/06 02:55:54;;;;;;;17.40;12.10;;;-2.90;99.90;;;;;;5086711;28;20212;-66
2021/03/06 02:58:30;;;;;;;17.87;11.97;;;-3.00;99.90;;;;;;5086615;28;20543;-65
2021/03/06 03:01:05;;;;;;;15.90;12.55;;;-3.00;99.90;;;;;;5083227;28;20181;-66
2021/03/06 03:04:06;;;;;;;16.13;11.90;;;-3.00;99.90;;;;;;5087990;28;20188;-66
2021/03/06 03:06:38;;;;;;;17.45;11.23;;;-3.00;99.90;;;;;;5087658;28;20179;-66
2021/03/06 03:09:27;;;;;;;15.90;11.98;;;-3.00;99.90;;;;;;5086611;28;20700;-65
2021/03/06 03:11:56;;;;;;;14.48;11.05;;;-3.00;99.90;;;;;;5089024;28;20191;-65
2021/03/06 03:14:32;;;;;;;16.75;11.80;;;-3.10;99.90;;;;;;5087883;28;20242;-65
2021/03/06 03:17:07;;;;;;;17.23;11.93;;;-3.10;99.90;;;;;;5082731;28;20271;-65
2021/03/06 03:19:43;;;;;;;14.73;10.63;;;-3.10;99.90;;;;;;5087321;28;20187;-66
2021/03/06 03:22:10;;;;;;;17.92;12.10;;;-3.10;99.90;;;;;;5068117;28;20191;-66
2021/03/06 03:24:40;;;;;;;15.95;11.10;;;-3.10;99.90;;;;;;5088355;28;20188;-65
2021/03/06 03:27:10;;;;;;;15.93;12.27;;;-3.10;99.90;;;;;;5084136;28;20201;-65
2021/03/06 03:29:38;;;;;;;13.75;11.05;;;-3.10;99.90;;;;;;5087993;28;20650;-65
2021/03/06 03:32:07;;;;;;;14.30;10.75;;;-3.10;99.90;;;;;;5067150;28;20212;-65
2021/03/06 03:34:34;;;;;;;16.08;11.40;;;-3.10;99.90;;;;;;5087965;28;20868;-66
2021/03/06 03:37:01;;;;;;;14.35;11.07;;;-3.20;99.90;;;;;;5088631;28;20168;-65
2021/03/06 03:39:28;;;;;;;15.57;11.05;;;-3.10;99.90;;;;;;5087443;28;20193;-66
2021/03/06 03:41:54;;;;;;;15.55;11.77;;;-3.10;99.90;;;;;;5087328;28;20179;-66
2021/03/06 03:44:20;;;;;;;15.63;10.90;;;-3.10;99.90;;;;;;5087542;28;20229;-66
2021/03/06 03:46:46;;;;;;;17.33;11.77;;;-3.10;99.90;;;;;;5088598;28;21828;-66
2021/03/06 03:49:18;;;;;;;14.55;11.18;;;-3.20;99.90;;;;;;5086357;28;20279;-65
2021/03/06 03:51:45;;;;;;;14.63;11.55;;;-3.10;99.90;;;;;;5090328;28;20246;-66
2021/03/06 03:54:13;;;;;;;14.63;10.73;;;-3.20;99.90;;;;;;5091272;28;20177;-65
2021/03/06 03:56:39;;;;;;;13.85;10.10;;;-3.20;99.90;;;;;;5092084;28;20218;-66
2021/03/06 03:59:06;;;;;;;17.15;11.70;;;-3.20;99.90;;;;;;5089506;28;20795;-65
2021/03/06 04:01:39;;;;;;;15.68;11.82;;;-3.20;99.90;;;;;;5091799;28;20189;-65
2021/03/06 04:04:06;;;;;;;17.35;11.70;;;-3.20;99.90;;;;;;5088663;28;20185;-65
2021/03/06 04:06:32;;;;;;;16.40;11.60;;;-3.20;99.90;;;;;;5091146;28;20175;-65
2021/03/06 04:08:57;;;;;;;16.67;11.97;;;-3.20;99.90;;;;;;5088799;28;20199;-64
2021/03/06 04:11:23;;;;;;;15.83;11.57;;;-3.30;99.90;;;;;;5090645;28;20429;-65
2021/03/06 04:13:49;;;;;;;16.57;12.17;;;-3.30;99.90;;;;;;5088148;28;20228;-64
2021/03/06 04:16:15;;;;;;;15.23;11.75;;;-3.30;99.90;;;;;;5091064;28;20188;-65
2021/03/06 04:18:40;;;;;;;16.20;12.47;;;-3.30;99.90;;;;;;5085424;28;20551;-64
2021/03/06 04:21:06;;;;;;;14.63;11.67;;;-3.30;99.90;;;;;;5084689;28;20204;-65
2021/03/06 04:23:31;;;;;;;17.17;11.33;;;-3.40;99.90;;;;;;5090805;28;20181;-64
2021/03/06 04:25:57;;;;;;;16.80;11.97;;;-3.40;99.90;;;;;;5090285;28;20626;-65
2021/03/06 04:28:23;;;;;;;15.07;10.60;;;-3.40;99.90;;;;;;5090458;28;20208;-64
2021/03/06 04:30:48;;;;;;;13.70;10.23;;;-3.40;99.90;;;;;;5089925;28;20199;-65
2021/03/06 04:33:14;;;;;;;16.53;11.33;;;-3.50;99.90;;;;;;5089271;28;20921;-65
2021/03/06 04:35:39;;;;;;;17.03;11.80;;;-3.50;99.90;;;;;;5073159;28;20179;-65
2021/03/06 04:38:05;;;;;;;16.37;11.77;;;-3.50;99.90;;;;;;5071503;28;20317;-66
2021/03/06 04:40:30;;;;;;;16.27;10.90;;;-3.50;99.90;;;;;;5089866;28;20222;-66
2021/03/06 04:42:56;;;;;;;16.23;11.40;;;-3.50;99.90;;;;;;5089564;28;20223;-66
2021/03/06 04:45:21;;;;;;;16.03;11.20;;;-3.50;99.90;;;;;;5089017;28;20517;-65
2021/03/06 04:47:47;;;;;;;15.30;11.80;;;-3.50;99.90;;;;;;5084928;28;20189;-65
2021/03/06 04:50:14;;;;;;;19.07;11.80;;;-3.60;99.90;;;;;;5087986;28;20249;-66
2021/03/06 04:52:40;;;;;;;16.70;11.23;;;-3.60;99.90;;;;;;5090779;28;20176;-66
2021/03/06 04:55:06;;;;;;;16.75;10.93;;;-3.50;99.90;;;;;;5089744;28;20184;-66
2021/03/06 04:57:32;;;;;;;17.13;12.65;;;-3.60;99.90;;;;;;5089275;28;20217;-66
2021/03/06 04:59:59;;;;;;;15.30;11.10;;;-3.60;99.90;;;;;;5089579;28;20597;-66
2021/03/06 05:02:25;;;;;;;16.77;11.20;;;-3.60;99.90;;;;;;5071741;28;20454;-66
2021/03/06 05:04:50;;;;;;;15.20;10.40;;;-3.60;99.90;;;;;;5089183;28;20203;-66
2021/03/06 05:07:16;;;;;;;14.20;10.97;;;-3.50;99.90;;;;;;5089194;28;20177;-66
2021/03/06 05:09:42;;;;;;;15.40;11.07;;;-3.50;99.90;;;;;;5089455;28;20213;-66
2021/03/06 05:12:07;;;;;;;18.77;11.73;;;-3.50;99.90;;;;;;5088309;28;20528;-66
2021/03/06 05:14:33;;;;;;;12.70;10.40;;;-3.60;99.90;;;;;;5089132;28;20235;-66
2021/03/06 05:16:59;;;;;;;14.00;11.07;;;-3.60;99.90;;;;;;5088637;28;20181;-66
2021/03/06 05:19:24;;;;;;;13.90;10.47;;;-3.50;99.90;;;;;;5089681;28;20188;-66
2021/03/06 05:21:50;;;;;;;17.43;10.70;;;-3.60;99.90;;;;;;5089795;28;20172;-66
2021/03/06 05:24:15;;;;;;;16.63;10.50;;;-3.50;99.90;;;;;;5089346;28;20189;-66
2021/03/06 05:26:41;;;;;;;13.60;9.73;;;-3.50;99.90;;;;;;5089414;28;20545;-67
2021/03/06 05:29:06;;;;;;;16.83;11.47;;;-3.50;99.90;;;;;;5073321;28;20204;-66
2021/03/06 05:31:32;;;;;;;15.87;10.83;;;-3.50;99.90;;;;;;5089803;28;20236;-66
2021/03/06 05:33:57;;;;;;;14.93;11.43;;;-3.50;99.90;;;;;;5083862;28;20199;-66
2021/03/06 05:36:24;;;;;;;13.83;10.23;;;-3.50;99.90;;;;;;5101840;28;20221;-66
2021/03/06 05:38:50;;;;;;;15.18;10.85;;;-3.50;99.90;;;;;;5082223;28;20560;-66
2021/03/06 05:41:19;;;;;;;16.23;10.40;;;-3.40;99.90;;;;;;5089871;28;20651;-66
2021/03/06 05:43:45;;;;;;;13.93;10.70;;;-3.50;99.90;;;;;;5069430;28;20268;-66
2021/03/06 05:46:13;;;;;;;14.25;9.93;;;-3.50;99.90;;;;;;5070825;28;20192;-66
2021/03/06 05:48:39;;;;;;;14.63;11.15;;;-3.50;99.90;;;;;;5089028;28;20213;-67
2021/03/06 05:51:06;;;;;;;17.40;11.17;;;-3.50;99.90;;;;;;5069112;28;20242;-66
2021/03/06 05:53:32;;;;;;;15.55;10.80;;;-3.40;99.90;;;;;;5088966;28;20212;-67
2021/03/06 05:56:01;;;;;;;14.32;10.40;;;-3.40;99.90;;;;;;5069314;28;20180;-66
2021/03/06 05:58:29;;;;;;;14.93;10.60;;;-3.40;99.90;;;;;;5088843;28;20311;-66
2021/03/06 06:00:55;;;;;;;15.18;9.80;;;-3.40;99.90;;;;;;5086237;28;20176;-66
2021/03/06 06:03:22;;;;;;;14.27;10.95;;;-3.40;99.90;;;;;;5085289;28;20188;-66
2021/03/06 06:05:48;;;;;;;13.70;9.95;;;-3.40;99.90;;;;;;5092878;28;20189;-66
2021/03/06 06:08:15;;;;;;;12.67;9.50;;;-3.40;99.90;;;;;;5087199;28;20237;-66
2021/03/06 06:10:41;;;;;;;14.02;9.88;;;-3.30;99.90;;;;;;5087838;28;20184;-66
2021/03/06 06:13:07;;;;;;;12.80;10.00;;;-3.30;99.90;;;;;;5089233;28;20984;-66
2021/03/06 06:15:32;;;;;;;13.70;9.67;;;-3.30;99.90;;;;;;5068175;28;20484;-66
2021/03/06 06:17:58;;;;;;;13.40;11.30;;;-3.30;99.90;;;;;;5089401;28;20184;-66
2021/03/06 06:20:24;;;;;;;13.27;9.57;;;-3.30;99.90;;;;;;5086437;28;20219;-66
2021/03/06 06:23:08;;;;;;;17.57;10.43;;;-3.20;99.90;;;;;;5087662;28;20188;-66
2021/03/06 06:25:34;;;;;;;14.93;11.20;;;-3.20;99.90;;;;;;5089066;28;20213;-66
2021/03/06 06:28:04;;;;;;;15.50;10.40;;;-3.20;99.90;;;;;;5070308;28;20706;-65
2021/03/06 06:30:30;;;;;;;13.65;10.10;;;-3.10;99.90;;;;;;5085888;28;20461;-66
2021/03/06 06:32:56;;;;;;;15.23;10.90;;;-3.10;99.90;;;;;;5088669;28;20189;-66
2021/03/06 06:35:22;;;;;;;14.82;10.82;;;-3.00;99.90;;;;;;5081929;28;20486;-66
2021/03/06 06:37:58;;;;;;;16.63;11.93;;;-3.00;99.90;;;;;;5066614;28;20215;-65
2021/03/06 06:40:25;;;;;;;13.43;10.27;;;-2.90;99.90;;;;;;5084167;28;20184;-66
2021/03/06 06:42:51;;;;;;;16.08;11.73;;;-2.90;99.90;;;;;;5091807;28;20195;-65
2021/03/06 06:45:17;;;;;;;16.20;10.77;;;-2.90;99.90;;;;;;5085165;28;20180;-66
2021/03/06 06:47:47;;;;;;;13.48;11.23;;;-2.90;99.90;;;;;;5086560;28;20691;-66
2021/03/06 06:50:26;;;;;;;17.10;11.32;;;-2.80;99.90;;;;;;5083257;28;20212;-67
2021/03/06 06:52:52;;;;;;;16.67;10.88;;;-2.70;99.90;;;;;;5087511;28;20176;-67
2021/03/06 06:55:17;;;;;;;18.00;11.60;;;-2.70;99.90;;;;;;5084593;28;20230;-67
2021/03/06 06:57:47;;;;;;;16.70;12.00;;;-2.70;99.90;;;;;;5084263;28;20275;-67
2021/03/06 07:00:13;;;;;;;14.73;10.27;;;-2.60;99.90;;;;;;5086881;28;20208;-67
2021/03/06 07:02:53;;;;;;;13.05;10.18;;;-2.50;99.90;;;;;;5078936;28;20219;-67
2021/03/06 07:05:31;;;;;;;13.68;10.95;;;-2.50;99.90;;;;;;5084054;28;20207;-66
2021/03/06 07:07:58;;;;;;;14.50;10.30;;;-2.40;99.90;;;;;;5076179;28;20263;-67
2021/03/06 07:10:25;;;;;;;13.90;9.98;;;-2.30;99.90;;;;;;5079575;28;20221;-66
2021/03/06 07:13:15;;;;;;;13.43;9.45;;;-2.20;99.90;;;;;;5078466;28;20200;-67
2021/03/06 07:15:41;;;;;;;13.98;10.48;;;-2.20;99.90;;;;;;5087163;28;20176;-68
2021/03/06 07:18:09;;;;;;;15.20;10.00;;;-2.10;99.90;;;;;;5084788;28;20214;-68
2021/03/06 07:20:40;;;;;;;11.32;9.30;;;-2.00;97.10;;;;;;5085480;28;20173;-68
2021/03/06 07:23:25;;;;;;;13.73;11.10;;;-2.00;97.70;;;;;;5086364;28;20185;-68
2021/03/06 07:25:53;;;;;;;14.43;10.60;;;-1.80;99.90;;;;;;5088722;28;20219;-68
2021/03/06 07:28:20;;;;;;;15.85;11.35;;;-1.70;99.90;;;;;;5084782;28;20729;-68
2021/03/06 07:30:47;;;;;;;12.63;9.80;;;-1.60;98.80;;;;;;5089302;28;20529;-67
2021/03/06 07:33:14;;;;;;;14.18;9.93;;;-1.50;98.30;;;;;;5085177;28;20255;-68
2021/03/06 07:35:41;;;;;;;12.63;9.85;;;-1.40;94.80;;;;;;5082881;28;20234;-67
2021/03/06 07:38:12;;;;;;;11.35;10.15;;;-1.30;94.00;;;;;;5070005;28;20275;-67
2021/03/06 07:40:44;;;;;;;11.60;9.45;;;-1.20;91.70;;;;;;5084903;28;20740;-67
2021/03/06 07:43:17;;;;;;;13.45;9.85;;;-1.10;90.20;;;;;;5089838;28;20181;-68
2021/03/06 07:45:45;;;;;;;13.82;10.10;;;-1.00;85.90;;;;;;5089613;28;20230;-68
2021/03/06 07:48:15;;;;;;;13.45;9.05;;;-0.90;78.00;;;;;;5085848;28;20196;-68
2021/03/06 07:50:50;;;;;;;16.23;10.15;;;-0.80;81.50;;;;;;5087605;28;20176;-68
2021/03/06 07:53:16;;;;;;;12.07;9.18;;;-0.60;83.20;;;;;;5090375;28;20275;-70
2021/03/06 07:55:42;;;;;;;10.18;9.02;;;-0.50;79.30;;;;;;5088677;28;20206;-69
2021/03/06 07:58:17;;;;;;;11.30;8.70;;;-0.40;79.20;;;;;;5090241;28;20212;-68
2021/03/06 08:00:49;;;;;;;12.60;9.90;;;-0.20;74.00;;;;;;5084042;28;20431;-68
2021/03/06 08:03:24;;;;;;;13.18;9.43;;;0.00;66.80;;;;;;5076793;28;20176;-67
2021/03/06 08:05:53;;;;;;;10.52;8.60;;;0.10;54.50;;;;;;5097236;28;20172;-68
2021/03/06 08:08:33;;;;;;;9.20;8.27;;;0.30;55.90;;;;;;5090980;28;20168;-68
2021/03/06 08:11:11;;;;;;;11.00;8.65;;;0.50;54.70;;;;;;5089647;28;20808;-68
2021/03/06 08:13:51;;;;;;;11.75;9.52;;;0.80;39.60;;;;;;5089923;28;20187;-66
2021/03/06 08:16:22;;;;;;;9.73;8.63;;;1.20;23.50;;;;;;5077339;28;20182;-64
2021/03/06 08:18:57;;;;;;;9.50;8.18;;;1.50;8.50;;;;;;5090861;28;20202;-65
2021/03/06 08:21:43;;;;;;;10.35;8.20;;;1.80;1.00;;;;;;5091093;28;20238;-65
2021/03/06 08:24:24;;;;;;;8.98;8.05;;;2.30;1.00;;;;;;5093680;28;20192;-65
2021/03/06 08:27:02;;;;;;;8.75;7.63;;;2.60;1.00;;;;;;5091003;28;20250;-65
2021/03/06 08:29:27;;;;;;;8.70;7.85;;;3.00;1.00;;;;;;5089790;28;20257;-65
2021/03/06 08:32:12;;;;;;;9.83;7.70;;;3.50;1.00;;;;;;5090502;28;20283;-65
2021/03/06 08:34:41;;;;;;;10.50;7.78;;;4.10;1.00;;;;;;5088622;28;20507;-67
2021/03/06 08:37:12;;;;;;;11.55;8.40;;;4.90;1.00;;;;;;5090680;28;20168;-66
2021/03/06 08:39:40;;;;;;;10.55;8.85;;;5.60;1.00;;;;;;5077567;28;20177;-66
2021/03/06 08:42:05;;;;;;;8.98;8.07;;;6.40;1.00;;;;;;5089279;28;20184;-66
2021/03/06 08:44:31;;;;;;;10.07;9.07;;;7.10;1.00;;;;;;5090747;28;20394;-66
2021/03/06 08:46:57;;;;;;;9.43;8.43;;;7.50;99.90;;;;;;5071626;28;20207;-66
2021/03/06 08:49:23;;;;;;;9.07;8.20;;;8.40;99.90;;;;;;5089913;28;20260;-66
2021/03/06 08:51:50;;;;;;;9.50;8.50;;;8.80;1.00;;;;;;5090030;28;20425;-67
2021/03/06 08:54:16;;;;;;;9.93;9.03;;;9.40;1.00;;;;;;5089654;28;20952;-67
2021/03/06 08:56:42;;;;;;;9.67;8.70;;;9.60;1.00;;;;;;5088125;28;20458;-67
2021/03/06 08:59:07;;;;;;;9.70;7.73;;;10.30;1.00;;;;;;5088813;28;20924;-67
2021/03/06 09:01:34;;;;;;;8.70;8.00;;;11.20;99.90;;;;;;5088552;28;20235;-68
2021/03/06 09:04:00;;;;;;;9.10;8.20;;;11.70;99.90;;;;;;5090291;28;20263;-67
2021/03/06 09:06:40;;;;;;;8.30;7.60;;;12.30;99.90;;;;;;5081714;28;20433;-67
2021/03/06 09:09:10;;;;;;;9.10;8.13;;;13.00;99.90;;;;;;5087038;28;21011;-68
2021/03/06 09:11:55;;;;;;;8.30;7.60;;;12.90;99.90;;;;;;5080484;28;21187;-67
2021/03/06 09:14:21;;;;;;;9.10;8.37;;;12.90;99.90;;;;;;5076798;28;20755;-68
2021/03/06 09:16:47;;;;;;;8.20;7.40;;;13.00;99.90;;;;;;5098026;28;20440;-68
2021/03/06 09:19:27;;;;;;;8.53;7.73;;;13.10;99.90;;;;;;5090160;28;20198;-68
2021/03/06 09:21:57;;;;;;;8.50;7.80;;;13.10;99.90;;;;;;5088442;28;20510;-69
2021/03/06 09:24:23;;;;;;;7.37;6.80;;;13.60;99.90;;;;;;5089168;28;20423;-69
2021/03/06 09:26:53;;;;;;;6.80;6.30;;;14.20;99.90;;;;;;5089204;28;20488;-68
2021/03/06 09:29:18;;;;;;;6.80;6.20;;;14.70;99.90;;;;;;5089496;28;20240;-69
2021/03/06 09:31:48;;;;;;;7.20;6.50;;;15.00;99.90;;;;;;5087671;28;20433;-69
2021/03/06 09:34:14;;;;;;;6.57;5.97;;;15.20;99.90;;;;;;5089724;28;20250;-69
2021/03/06 09:36:40;;;;;;;6.03;5.50;;;15.00;99.90;;;;;;5095933;28;20437;-69
2021/03/06 09:39:06;;;;;;;6.27;5.83;;;15.40;99.90;;;;;;5089540;28;20183;-68
2021/03/06 09:41:35;;;;;;;6.77;6.27;;;15.30;99.90;;;;;;5089453;28;20475;-69
2021/03/06 09:44:03;;;;;;;6.13;5.63;;;15.20;99.90;;;;;;5088339;28;20902;-69
2021/03/06 09:46:31;;;;;;;5.97;5.53;;;14.80;99.90;;;;;;5088807;28;20422;-69
2021/03/06 09:48:58;;;;;;;6.33;5.83;;;14.80;99.90;;;;;;5088667;28;20455;-69
2021/03/06 09:51:44;;;;;;;5.80;5.40;;;14.50;99.90;;;;;;5089150;28;20419;-69
2021/03/06 09:54:11;;;;;;;6.03;5.53;;;14.50;99.90;;;;;;5087416;28;20422;-69
2021/03/06 09:56:51;;;;;;;5.67;5.17;;;14.40;99.90;;;;;;5089149;28;20415;-67
2021/03/06 09:59:17;;;;;;;5.20;4.90;;;14.90;99.90;;;;;;5087301;28;20457;-68
2021/03/06 10:01:44;;;;;;;5.87;5.40;;;14.90;99.90;;;;;;5085958;28;20451;-69
2021/03/06 10:04:12;;;;;;;5.20;4.90;;;14.60;99.90;;;;;;5085986;28;20483;-66
2021/03/06 10:06:41;;;;;;;5.63;5.13;;;15.00;99.90;;;;;;5078429;28;20443;-66
2021/03/06 10:09:09;;;;;;;5.70;5.20;;;14.50;99.90;;;;;;5067621;28;20461;-70
2021/03/06 10:12:04;;;;;;;5.77;5.37;;;14.30;99.90;;;;;;5060959;28;20429;-69
2021/03/06 10:14:30;;;;;;;5.57;5.20;;;14.20;99.90;;;;;;5055950;28;20446;-70
2021/03/06 10:16:59;;;;;;;5.50;5.20;;;14.50;99.90;;;;;;5079029;28;20462;-73
2021/03/06 10:19:27;;;;;;;5.30;5.00;;;14.80;99.90;;;;;;5078372;28;20549;-70
2021/03/06 10:21:57;;;;;;;5.60;5.20;;;14.90;99.90;;;;;;5079092;28;20442;-69
2021/03/06 10:24:22;;;;;;;5.50;5.20;;;15.00;99.90;;;;;;5073465;28;20479;-69
2021/03/06 10:26:58;;;;;;;5.23;4.90;;;14.90;1.00;;;;;;5080177;28;20890;-68
2021/03/06 10:29:26;;;;;;;5.27;4.87;;;15.10;99.90;;;;;;5078042;28;20337;-69
2021/03/06 10:32:02;;;;;;;5.20;4.80;;;15.00;1.00;;;;;;5079782;28;20460;-70
2021/03/06 10:34:31;;;;;;;5.63;5.23;;;15.00;1.00;;;;;;5078398;28;20443;-68
2021/03/06 10:37:10;;;;;;;5.23;4.83;;;15.30;99.90;;;;;;5079153;28;20444;-69
2021/03/06 10:39:57;;;;;;;5.80;5.30;;;14.80;99.90;;;;;;5078660;28;20450;-71
2021/03/06 10:42:39;;;;;;;5.60;5.20;;;14.60;99.90;;;;;;5073795;28;20434;-67
2021/03/06 10:45:06;;;;;;;6.53;6.13;;;14.40;99.90;;;;;;5079905;28;20422;-68
2021/03/06 10:47:53;;;;;;;5.90;5.50;;;14.10;99.90;;;;;;5079865;28;20433;-67
2021/03/06 10:50:27;;;;;;;5.50;5.17;;;14.40;99.90;;;;;;5078629;28;20463;-66
2021/03/06 10:53:12;;;;;;;6.13;5.73;;;14.40;99.90;;;;;;5073632;28;20451;-66
2021/03/06 10:55:38;;;;;;;6.53;6.03;;;14.10;99.90;;;;;;5079687;28;20429;-66
2021/03/06 10:58:04;;;;;;;6.60;6.10;;;13.70;99.90;;;;;;5075920;28;20467;-66
2021/03/06 11:00:30;;;;;;;6.70;6.20;;;12.90;99.90;;;;;;5082604;28;20293;-66
2021/03/06 11:02:58;;;;;;;5.90;5.40;;;12.90;99.90;;;;;;5076803;28;20311;-66
2021/03/06 11:05:25;;;;;;;5.87;5.47;;;13.20;99.90;;;;;;5080759;28;20446;-66
2021/03/06 11:07:51;;;;;;;6.47;5.97;;;13.40;99.90;;;;;;5081758;28;21113;-65
2021/03/06 11:10:18;;;;;;;6.00;5.60;;;13.80;99.90;;;;;;5082139;28;20470;-66
2021/03/06 11:13:01;;;;;;;5.97;5.57;;;14.00;99.90;;;;;;5083257;28;21062;-67
2021/03/06 11:15:29;;;;;;;7.23;6.73;;;13.60;99.90;;;;;;5083332;28;20433;-67
2021/03/06 11:17:57;;;;;;;6.23;5.80;;;12.90;99.90;;;;;;5072467;28;20462;-67
2021/03/06 11:20:25;;;;;;;6.70;6.20;;;13.10;99.90;;;;;;5081826;28;21124;-67
2021/03/06 11:22:50;;;;;;;6.13;5.73;;;13.00;99.90;;;;;;5079572;28;21298;-68
2021/03/06 11:25:18;;;;;;;6.10;5.70;;;13.60;99.90;;;;;;5083379;28;20485;-67
2021/03/06 11:27:57;;;;;;;6.50;6.10;;;13.70;99.90;;;;;;5076606;28;20226;-67
2021/03/06 11:30:31;;;;;;;5.80;5.40;;;13.90;99.90;;;;;;5082863;28;20495;-68
2021/03/06 11:32:57;;;;;;;5.97;5.60;;;14.20;99.90;;;;;;5075039;28;20437;-69
2021/03/06 11:35:23;;;;;;;6.80;6.20;;;14.20;99.90;;;;;;5081914;28;20410;-67
2021/03/06 11:37:50;;;;;;;6.63;6.13;;;14.30;99.90;;;;;;5081522;28;20433;-67
2021/03/06 11:40:19;;;;;;;6.20;5.70;;;14.10;99.90;;;;;;5080850;28;20465;-68
2021/03/06 11:42:45;;;;;;;6.50;6.00;;;14.10;99.90;;;;;;5090217;28;20441;-68
2021/03/06 11:45:12;;;;;;;6.13;5.60;;;14.20;99.90;;;;;;5079278;28;20414;-66
2021/03/06 11:47:38;;;;;;;6.60;6.10;;;14.80;99.90;;;;;;5086719;28;20431;-69
2021/03/06 11:50:08;;;;;;;6.10;5.60;;;14.40;99.90;;;;;;5090319;28;20493;-68
2021/03/06 11:52:35;;;;;;;6.20;5.70;;;14.20;99.90;;;;;;5083160;28;20192;-69
2021/03/06 11:55:01;;;;;;;6.80;6.30;;;14.50;99.90;;;;;;5083674;28;20402;-68
2021/03/06 11:57:26;;;;;;;6.63;6.13;;;14.60;99.90;;;;;;5082174;28;20539;-66
2021/03/06 11:59:53;;;;;;;6.37;5.77;;;14.70;99.90;;;;;;5081963;28;20175;-66
2021/03/06 12:02:19;;;;;;;6.33;5.93;;;14.90;99.90;;;;;;5068152;28;20190;-68
2021/03/06 12:04:45;;;;;;;6.23;5.73;;;15.50;99.90;;;;;;5082613;28;20416;-71
2021/03/06 12:07:10;;;;;;;7.00;6.50;;;15.90;99.90;;;;;;5082850;28;20448;-69
2021/03/06 12:09:36;;;;;;;6.77;6.17;;;15.70;99.90;;;;;;5087657;28;20460;-69
2021/03/06 12:12:02;;;;;;;7.00;6.50;;;15.60;99.90;;;;;;5088945;28;20262;-69
2021/03/06 12:14:27;;;;;;;7.00;6.53;;;15.50;99.90;;;;;;5090288;28;20273;-68
2021/03/06 12:16:53;;;;;;;7.00;6.50;;;15.20;99.90;;;;;;5087518;28;20917;-69
2021/03/06 12:19:18;;;;;;;6.73;6.23;;;14.80;99.90;;;;;;5085243;28;20192;-70
2021/03/06 12:21:44;;;;;;;7.67;7.00;;;14.50;99.90;;;;;;5090386;28;20182;-70
2021/03/06 12:24:10;;;;;;;6.17;5.77;;;14.70;99.90;;;;;;5089650;28;20227;-69
2021/03/06 12:26:35;;;;;;;5.90;5.50;;;14.70;99.90;;;;;;5090666;28;20322;-69
2021/03/06 12:29:01;;;;;;;6.20;5.80;;;15.10;99.90;;;;;;5089808;28;21092;-69
2021/03/06 12:31:26;;;;;;;6.80;6.40;;;15.30;99.90;;;;;;5089512;28;20586;-69
2021/03/06 12:33:52;;;;;;;5.90;5.50;;;15.70;99.90;;;;;;5086302;28;20901;-69
2021/03/06 12:36:18;;;;;;;5.83;5.50;;;15.10;99.90;;;;;;5089082;28;20181;-69
2021/03/06 12:38:43;;;;;;;6.23;5.83;;;14.50;99.90;;;;;;5089353;28;20517;-69
2021/03/06 12:41:09;;;;;;;6.40;5.90;;;14.20;99.90;;;;;;5089024;28;20184;-69
2021/03/06 12:43:34;;;;;;;6.70;6.20;;;14.10;99.90;;;;;;5090553;28;20192;-69